createdAt,value
2019-06-08T00:02:12.622Z,99.90
2019-06-08T00:05:35.283Z,99.90
2019-06-08T00:08:57.692Z,99.90
2019-06-08T00:12:21.229Z,99.90
2019-06-08T00:15:43.954Z,99.90
2019-06-08T00:19:06.122Z,99.90
2019-06-08T00:22:28.271Z,99.90
2019-06-08T00:25:50.819Z,99.90
2019-06-08T00:29:14.158Z,99.90
2019-06-08T00:32:36.575Z,99.90
2019-06-08T00:35:59.309Z,99.90
2019-06-08T00:39:22.916Z,99.90
2019-06-08T00:42:45.046Z,99.90
2019-06-08T00:46:07.636Z,99.90
2019-06-08T00:49:30.071Z,99.90
2019-06-08T00:52:52.811Z,99.90
2019-06-08T00:56:15.291Z,99.90
2019-06-08T00:59:37.885Z,99.90
2019-06-08T01:03:00.266Z,99.90
2019-06-08T01:06:22.981Z,99.90
2019-06-08T01:09:45.667Z,99.90
2019-06-08T01:13:08.170Z,99.90
2019-06-08T01:16:30.871Z,99.90
2019-06-08T01:19:53.463Z,99.90
2019-06-08T01:23:16.413Z,99.90
2019-06-08T01:26:39.115Z,99.90
2019-06-08T01:30:02.087Z,99.90
2019-06-08T01:33:25.021Z,99.90
2019-06-08T01:36:47.963Z,99.90
2019-06-08T01:40:11.072Z,99.90
2019-06-08T01:43:33.661Z,99.90
2019-06-08T01:46:56.234Z,99.90
2019-06-08T01:50:18.842Z,99.90
2019-06-08T01:53:41.769Z,99.90
2019-06-08T01:57:04.231Z,99.90
2019-06-08T02:00:35.242Z,99.90
2019-06-08T02:03:51.163Z,99.90
2019-06-08T02:07:13.465Z,99.90
2019-06-08T02:10:35.975Z,99.90
2019-06-08T02:13:58.162Z,99.90
2019-06-08T02:17:20.647Z,99.90
2019-06-08T02:20:42.811Z,99.90
2019-06-08T02:24:05.323Z,99.90
2019-06-08T02:27:29.194Z,99.90
2019-06-08T02:30:51.527Z,99.90
2019-06-08T02:34:14.176Z,99.90
2019-06-08T02:37:38.335Z,99.90
2019-06-08T02:41:00.083Z,99.90
2019-06-08T02:44:22.559Z,99.90
2019-06-08T02:47:44.818Z,99.90
2019-06-08T02:51:07.874Z,99.90
2019-06-08T02:54:30.732Z,99.90
2019-06-08T02:57:54.799Z,99.90
2019-06-08T03:01:19.452Z,99.90
2019-06-08T03:04:41.685Z,99.90
2019-06-08T03:08:05.707Z,99.90
2019-06-08T03:11:28.047Z,99.90
2019-06-08T03:14:53.175Z,99.90
2019-06-08T03:18:15.192Z,99.90
2019-06-08T03:21:38.823Z,99.90
2019-06-08T03:25:01.562Z,99.90
2019-06-08T03:28:24.536Z,99.90
2019-06-08T03:31:55.046Z,99.90
2019-06-08T03:35:11.293Z,99.90
2019-06-08T03:38:35.644Z,99.90
2019-06-08T03:41:58.166Z,99.90
2019-06-08T03:45:20.616Z,99.90
2019-06-08T03:48:44.487Z,99.90
2019-06-08T03:52:06.747Z,99.90
2019-06-08T03:55:28.848Z,99.90
2019-06-08T03:58:50.927Z,99.90
2019-06-08T04:02:13.067Z,99.90
2019-06-08T04:05:37.705Z,99.90
2019-06-08T04:08:59.755Z,99.90
2019-06-08T04:12:21.847Z,99.90
2019-06-08T04:15:46.282Z,99.90
2019-06-08T04:19:08.606Z,99.90
2019-06-08T04:22:31.135Z,99.90
2019-06-08T04:25:53.442Z,99.90
2019-06-08T04:29:16.102Z,99.90
2019-06-08T04:32:38.617Z,99.90
2019-06-08T04:36:01.289Z,99.90
2019-06-08T04:39:23.711Z,99.90
2019-06-08T04:42:48.767Z,99.90
2019-06-08T04:46:29.654Z,99.90
2019-06-08T04:49:52.426Z,99.90
2019-06-08T04:53:15.128Z,99.90
2019-06-08T04:56:38.586Z,99.90
2019-06-08T05:00:11.159Z,99.90
2019-06-08T05:03:25.302Z,99.90
2019-06-08T05:06:49.391Z,99.90
2019-06-08T05:10:11.887Z,99.90
2019-06-08T05:13:34.604Z,99.90
2019-06-08T05:16:56.924Z,99.90
2019-06-08T05:20:19.384Z,99.90
2019-06-08T05:23:43.315Z,99.90
2019-06-08T05:27:06.011Z,99.90
2019-06-08T05:30:28.415Z,99.90
2019-06-08T05:33:51.168Z,99.90
2019-06-08T05:37:14.045Z,99.90
2019-06-08T05:40:36.660Z,99.90
2019-06-08T05:43:58.831Z,99.90
2019-06-08T05:47:21.417Z,99.90
2019-06-08T05:50:59.136Z,99.90
2019-06-08T05:54:07.909Z,99.90
2019-06-08T05:57:30.038Z,99.90
2019-06-08T06:00:52.543Z,99.90
2019-06-08T06:04:15.050Z,99.90
2019-06-08T06:07:37.637Z,99.90
2019-06-08T06:10:59.970Z,99.90
2019-06-08T06:14:22.368Z,99.90
2019-06-08T06:17:46.701Z,99.90
2019-06-08T06:21:11.759Z,99.90
2019-06-08T06:24:33.311Z,99.90
2019-06-08T06:27:55.969Z,99.90
2019-06-08T06:31:18.718Z,99.90
2019-06-08T06:34:41.960Z,99.90
2019-06-08T06:38:04.680Z,99.90
2019-06-08T06:41:26.910Z,99.90
2019-06-08T06:44:50.545Z,99.90
2019-06-08T06:48:13.127Z,99.90
2019-06-08T06:51:35.693Z,99.90
2019-06-08T06:54:58.043Z,99.90
2019-06-08T06:58:20.517Z,99.50
2019-06-08T07:01:43.422Z,98.10
2019-06-08T07:05:06.404Z,97.90
2019-06-08T07:08:28.991Z,98.10
2019-06-08T07:11:51.350Z,97.90
2019-06-08T07:15:17.606Z,97.90
2019-06-08T07:18:40.222Z,99.10
2019-06-08T07:22:02.646Z,99.90
2019-06-08T07:25:25.092Z,99.90
2019-06-08T07:28:49.034Z,99.90
2019-06-08T07:32:11.779Z,99.90
2019-06-08T07:35:34.167Z,99.90
2019-06-08T07:38:56.786Z,99.90
2019-06-08T07:42:19.000Z,99.90
2019-06-08T07:45:41.067Z,99.90
2019-06-08T07:49:03.573Z,99.90
2019-06-08T07:52:25.702Z,99.90
2019-06-08T07:55:48.721Z,99.90
2019-06-08T07:59:12.547Z,99.90
2019-06-08T08:02:35.155Z,99.90
2019-06-08T08:05:58.593Z,99.90
2019-06-08T08:09:20.800Z,99.90
2019-06-08T08:12:42.902Z,99.90
2019-06-08T08:16:05.463Z,99.90
2019-06-08T08:19:27.858Z,99.90
2019-06-08T08:22:56.058Z,99.90
2019-06-08T08:26:14.304Z,99.90
2019-06-08T08:29:38.251Z,99.90
2019-06-08T08:33:02.975Z,99.90
2019-06-08T08:36:24.675Z,99.90
2019-06-08T08:39:47.342Z,99.90
2019-06-08T08:43:10.207Z,99.90
2019-06-08T08:46:32.355Z,99.90
2019-06-08T08:49:56.043Z,99.90
2019-06-08T08:53:18.839Z,99.90
2019-06-08T08:56:41.554Z,99.90
2019-06-08T09:00:05.404Z,99.90
2019-06-08T09:03:33.159Z,99.90
2019-06-08T09:06:53.224Z,99.90
2019-06-08T09:10:18.235Z,99.90
2019-06-08T09:13:40.185Z,99.90
2019-06-08T09:17:03.552Z,99.90
2019-06-08T09:20:28.398Z,99.90
2019-06-08T09:23:52.296Z,99.90
2019-06-08T09:27:13.867Z,99.90
2019-06-08T09:30:38.508Z,99.90
2019-06-08T09:34:09.138Z,99.90
2019-06-08T09:37:24.521Z,99.90
2019-06-08T09:40:48.717Z,99.90
2019-06-08T09:44:11.424Z,99.90
2019-06-08T09:47:34.705Z,99.90
2019-06-08T09:50:59.851Z,99.90
2019-06-08T09:54:21.253Z,99.90
2019-06-08T09:57:43.656Z,99.90
2019-06-08T10:01:09.189Z,99.90
2019-06-08T10:04:31.623Z,99.90
2019-06-08T10:07:54.499Z,99.90
2019-06-08T10:11:16.706Z,99.90
2019-06-08T10:14:39.077Z,99.90
2019-06-08T10:18:03.160Z,99.90
2019-06-08T10:21:28.270Z,99.90
2019-06-08T10:24:50.207Z,99.90
2019-06-08T10:28:15.939Z,99.90
2019-06-08T10:31:43.016Z,99.90
2019-06-08T10:35:03.638Z,99.90
2019-06-08T10:38:24.796Z,99.90
2019-06-08T10:41:48.812Z,99.90
2019-06-08T10:45:14.412Z,99.90
2019-06-08T10:48:37.737Z,99.90
2019-06-08T10:52:02.147Z,99.90
2019-06-08T10:55:23.764Z,99.90
2019-06-08T10:58:49.409Z,99.90
2019-06-08T11:02:13.958Z,99.90
2019-06-08T11:05:34.428Z,99.70
2019-06-08T11:09:00.385Z,99.10
2019-06-08T11:12:20.680Z,98.30
2019-06-08T11:15:43.428Z,97.50
2019-06-08T11:19:07.655Z,97.70
2019-06-08T11:22:30.059Z,96.60
2019-06-08T11:25:52.692Z,97.10
2019-06-08T11:29:15.046Z,96.00
2019-06-08T11:32:38.375Z,96.70
2019-06-08T11:36:04.147Z,96.90
2019-06-08T11:39:25.163Z,95.30
2019-06-08T11:42:48.541Z,96.10
2019-06-08T11:46:11.159Z,92.40
2019-06-08T11:49:33.653Z,92.70
2019-06-08T11:52:58.425Z,90.50
2019-06-08T11:56:21.318Z,91.80
2019-06-08T11:59:43.938Z,90.80
2019-06-08T12:03:11.506Z,90.40
2019-06-08T12:06:33.451Z,90.80
2019-06-08T12:09:57.909Z,90.10
2019-06-08T12:13:20.259Z,90.60
2019-06-08T12:16:42.735Z,90.10
2019-06-08T12:20:08.626Z,89.00
2019-06-08T12:23:29.507Z,87.50
2019-06-08T12:26:58.702Z,89.00
2019-06-08T12:30:19.501Z,86.00
2019-06-08T12:33:39.994Z,85.90
2019-06-08T12:37:02.418Z,87.50
2019-06-08T12:40:25.007Z,84.90
2019-06-08T12:43:47.982Z,83.30
2019-06-08T12:47:14.466Z,84.00
2019-06-08T12:50:34.558Z,85.00
2019-06-08T12:53:59.864Z,83.20
2019-06-08T12:57:22.156Z,80.90
2019-06-08T13:00:44.835Z,82.20
2019-06-08T13:04:07.608Z,84.00
2019-06-08T13:07:29.608Z,82.20
2019-06-08T13:10:52.035Z,83.30
2019-06-08T13:14:14.790Z,79.00
2019-06-08T13:17:38.055Z,80.10
2019-06-08T13:21:15.537Z,77.90
2019-06-08T13:24:24.773Z,78.60
2019-06-08T13:27:47.917Z,75.20
2019-06-08T13:31:11.635Z,76.50
2019-06-08T13:34:34.530Z,76.30
2019-06-08T13:37:57.602Z,76.00
2019-06-08T13:41:26.242Z,74.00
2019-06-08T13:44:44.458Z,75.20
2019-06-08T13:48:08.962Z,72.80
2019-06-08T13:51:31.555Z,72.50
2019-06-08T13:54:54.016Z,73.70
2019-06-08T13:58:21.842Z,74.40
2019-06-08T14:01:40.874Z,74.40
2019-06-08T14:05:03.624Z,74.10
2019-06-08T14:08:32.718Z,74.40
2019-06-08T14:11:50.468Z,73.40
2019-06-08T14:15:13.211Z,71.80
2019-06-08T14:18:38.424Z,74.10
2019-06-08T14:22:00.050Z,73.60
2019-06-08T14:25:23.294Z,71.20
2019-06-08T14:28:46.499Z,72.40
2019-06-08T14:32:09.004Z,71.20
2019-06-08T14:35:31.619Z,73.00
2019-06-08T14:38:54.147Z,73.10
2019-06-08T14:42:22.716Z,71.70
2019-06-08T14:45:40.511Z,72.10
2019-06-08T14:49:02.887Z,71.00
2019-06-08T14:52:25.943Z,71.40
2019-06-08T14:56:02.194Z,72.90
2019-06-08T14:59:13.215Z,72.30
2019-06-08T15:02:37.917Z,73.10
2019-06-08T15:06:00.127Z,76.00
2019-06-08T15:09:23.463Z,73.00
2019-06-08T15:12:46.022Z,72.60
2019-06-08T15:16:08.759Z,74.00
2019-06-08T15:19:32.556Z,74.70
2019-06-08T15:22:57.700Z,72.20
2019-06-08T15:26:28.171Z,71.90
2019-06-08T15:29:43.423Z,74.90
2019-06-08T15:33:06.037Z,74.50
2019-06-08T15:36:29.794Z,74.90
2019-06-08T15:39:51.939Z,73.90
2019-06-08T15:43:14.667Z,73.40
2019-06-08T15:46:37.908Z,73.40
2019-06-08T15:50:00.517Z,73.60
2019-06-08T15:53:24.159Z,72.70
2019-06-08T15:56:51.429Z,72.60
2019-06-08T16:00:11.291Z,74.10
2019-06-08T16:03:33.920Z,74.40
2019-06-08T16:06:56.249Z,73.70
2019-06-08T16:10:18.996Z,74.20
2019-06-08T16:13:41.437Z,74.70
2019-06-08T16:17:03.633Z,74.50
2019-06-08T16:20:27.409Z,74.70
2019-06-08T16:23:50.126Z,75.40
2019-06-08T16:27:12.203Z,74.00
2019-06-08T16:30:35.133Z,76.50
2019-06-08T16:33:57.675Z,75.90
2019-06-08T16:37:19.814Z,75.50
2019-06-08T16:40:41.994Z,73.90
2019-06-08T16:44:06.972Z,74.80
2019-06-08T16:47:28.982Z,73.10
2019-06-08T16:50:51.611Z,73.40
2019-06-08T16:54:14.086Z,73.70
2019-06-08T16:57:39.300Z,73.80
2019-06-08T17:01:01.239Z,73.60
2019-06-08T17:04:24.042Z,74.40
2019-06-08T17:07:46.392Z,75.30
2019-06-08T17:11:08.869Z,75.20
2019-06-08T17:14:31.970Z,75.80
2019-06-08T17:17:54.507Z,73.90
2019-06-08T17:21:17.173Z,75.20
2019-06-08T17:24:40.750Z,74.40
2019-06-08T17:28:03.426Z,74.40
2019-06-08T17:31:25.994Z,74.10
2019-06-08T17:34:48.604Z,76.50
2019-06-08T17:38:11.063Z,76.80
2019-06-08T17:41:33.974Z,76.10
2019-06-08T17:44:56.743Z,76.30
2019-06-08T17:48:18.766Z,77.00
2019-06-08T17:51:41.791Z,77.40
2019-06-08T17:55:05.147Z,77.90
2019-06-08T17:58:27.241Z,77.90
2019-06-08T18:01:49.665Z,76.60
2019-06-08T18:05:12.230Z,76.00
2019-06-08T18:08:36.757Z,77.10
2019-06-08T18:11:59.644Z,78.00
2019-06-08T18:15:21.923Z,78.40
2019-06-08T18:18:45.344Z,79.90
2019-06-08T18:22:15.142Z,78.80
2019-06-08T18:25:32.219Z,79.30
2019-06-08T18:28:55.170Z,78.60
2019-06-08T18:32:18.158Z,78.70
2019-06-08T18:35:41.859Z,79.60
2019-06-08T18:39:07.113Z,79.30
2019-06-08T18:42:28.998Z,77.60
2019-06-08T18:45:51.574Z,78.00
2019-06-08T18:49:13.705Z,78.10
2019-06-08T18:52:39.873Z,78.70
2019-06-08T18:56:00.140Z,78.80
2019-06-08T18:59:22.558Z,79.00
2019-06-08T19:02:48.808Z,81.00
2019-06-08T19:06:10.359Z,80.60
2019-06-08T19:09:33.514Z,80.20
2019-06-08T19:12:55.999Z,81.10
2019-06-08T19:16:18.408Z,82.30
2019-06-08T19:19:45.745Z,82.30
2019-06-08T19:23:04.902Z,82.70
2019-06-08T19:26:28.164Z,83.40
2019-06-08T19:29:51.646Z,83.50
2019-06-08T19:33:14.472Z,83.90
2019-06-08T19:36:39.767Z,84.70
2019-06-08T19:40:00.718Z,84.40
2019-06-08T19:43:23.351Z,84.30
2019-06-08T19:46:49.538Z,85.20
2019-06-08T19:50:09.947Z,85.60
2019-06-08T19:53:32.245Z,85.70
2019-06-08T19:56:54.634Z,85.50
2019-06-08T20:00:18.638Z,86.60
2019-06-08T20:03:41.210Z,86.40
2019-06-08T20:07:03.999Z,86.70
2019-06-08T20:10:28.011Z,87.00
2019-06-08T20:13:51.786Z,87.30
2019-06-08T20:17:14.495Z,87.50
2019-06-08T20:20:38.135Z,87.90
2019-06-08T20:24:00.587Z,89.70
2019-06-08T20:27:23.907Z,89.90
2019-06-08T20:30:46.730Z,90.10
2019-06-08T20:34:09.076Z,89.90
2019-06-08T20:37:31.576Z,90.10
2019-06-08T20:40:53.954Z,90.00
2019-06-08T20:44:16.659Z,90.10
2019-06-08T20:47:39.357Z,89.70
2019-06-08T20:51:01.412Z,90.10
2019-06-08T20:54:24.123Z,90.40
2019-06-08T20:57:48.674Z,90.50
2019-06-08T21:01:10.719Z,90.80
2019-06-08T21:04:33.087Z,91.00
2019-06-08T21:07:56.399Z,90.90
2019-06-08T21:11:19.584Z,91.00
2019-06-08T21:14:41.968Z,90.80
2019-06-08T21:18:04.595Z,91.40
2019-06-08T21:21:28.358Z,91.00
2019-06-08T21:24:53.694Z,90.70
2019-06-08T21:28:17.063Z,91.20
2019-06-08T21:31:38.961Z,91.10
2019-06-08T21:35:01.460Z,92.10
2019-06-08T21:38:24.498Z,92.40
2019-06-08T21:41:50.103Z,92.50
2019-06-08T21:45:11.718Z,92.60
2019-06-08T21:48:34.077Z,93.30
2019-06-08T21:51:59.616Z,92.80
2019-06-08T21:55:20.410Z,93.20
2019-06-08T21:58:43.139Z,93.40
2019-06-08T22:02:08.158Z,94.00
2019-06-08T22:05:30.732Z,93.70
2019-06-08T22:08:54.075Z,93.80
2019-06-08T22:12:17.383Z,94.20
2019-06-08T22:15:40.222Z,94.20
2019-06-08T22:19:03.454Z,94.20
2019-06-08T22:22:27.746Z,94.20
2019-06-08T22:25:51.942Z,94.80
2019-06-08T22:29:14.099Z,94.30
2019-06-08T22:32:38.499Z,94.80
2019-06-08T22:36:01.031Z,95.20
2019-06-08T22:39:23.096Z,94.70
2019-06-08T22:42:47.912Z,95.00
2019-06-08T22:46:09.431Z,95.40
2019-06-08T22:49:32.047Z,95.40
2019-06-08T22:52:55.823Z,95.40
2019-06-08T22:56:18.527Z,95.20
2019-06-08T22:59:40.958Z,96.10
2019-06-08T23:03:05.155Z,95.90
2019-06-08T23:06:28.142Z,95.70
2019-06-08T23:09:50.542Z,96.80
2019-06-08T23:13:12.966Z,97.20
2019-06-08T23:16:35.384Z,97.60
2019-06-08T23:19:58.949Z,97.90
2019-06-08T23:23:21.971Z,98.20
2019-06-08T23:26:44.436Z,98.50
2019-06-08T23:30:14.134Z,98.30
2019-06-08T23:33:38.737Z,98.70
2019-06-08T23:37:04.551Z,99.00
2019-06-08T23:40:27.107Z,99.20
2019-06-08T23:43:49.001Z,99.80
2019-06-08T23:47:11.591Z,99.90
2019-06-08T23:50:34.130Z,99.90
2019-06-08T23:53:59.712Z,99.90
2019-06-08T23:57:20.922Z,99.90
